Time;durP1;ratioP1;P1;durP2;ratioP2;P2;SDS_P1;SDS_P2;PMS_P1;PMS_P2;Temp;Humidity;BMP_temperature;BMP_pressure;BME280_temperature;BME280_humidity;BME280_pressure;Samples;Min_cycle;Max_cycle;Signal;HPM_P1;HPM_P2
2022/01/02 12:22:15;;;;;;;2.50;2.30;;;7.60;67.40;;;;;;5071014;28;20368;-70
2022/01/02 12:24:41;;;;;;;2.33;2.13;;;7.50;67.70;;;;;;5069624;28;20116;-69
2022/01/02 12:27:13;;;;;;;2.10;2.00;;;7.50;67.70;;;;;;5070946;28;20016;-68
2022/01/02 12:29:40;;;;;;;2.15;2.05;;;7.60;67.80;;;;;;5069317;28;20119;-68
2022/01/02 12:32:07;;;;;;;2.40;2.20;;;7.50;67.70;;;;;;5070995;28;20040;-70
2022/01/02 12:34:33;;;;;;;2.25;2.15;;;7.50;67.80;;;;;;5070624;28;20103;-69
2022/01/02 12:36:59;;;;;;;2.30;2.10;;;7.50;67.70;;;;;;5070435;28;20024;-69
2022/01/02 12:39:37;;;;;;;2.03;1.92;;;7.60;67.80;;;;;;5069222;28;20079;-70
2022/01/02 12:42:06;;;;;;;2.40;2.20;;;7.50;67.80;;;;;;5070265;28;20032;-69
2022/01/02 12:44:36;;;;;;;2.10;2.00;;;7.50;67.70;;;;;;5070724;28;20061;-69
2022/01/02 12:47:07;;;;;;;2.33;2.15;;;7.50;67.70;;;;;;5070577;28;20024;-69
2022/01/02 12:49:41;;;;;;;2.50;2.30;;;7.50;67.70;;;;;;5069541;28;20116;-69
2022/01/02 12:52:11;;;;;;;2.27;2.13;;;7.50;67.80;;;;;;5070620;28;20059;-69
2022/01/02 12:54:40;;;;;;;2.30;2.10;;;7.50;67.70;;;;;;5070302;28;20017;-70
2022/01/02 12:57:11;;;;;;;2.10;2.00;;;7.50;67.70;;;;;;5069387;28;20131;-69
2022/01/02 12:59:38;;;;;;;2.30;2.10;;;7.50;67.70;;;;;;5070532;28;20032;-69
2022/01/02 13:02:08;;;;;;;2.30;2.10;;;7.50;67.70;;;;;;5070289;28;20451;-69
2022/01/02 13:04:35;;;;;;;2.33;2.13;;;7.50;67.70;;;;;;5069026;28;20033;-69
2022/01/02 13:07:04;;;;;;;2.25;2.13;;;7.50;67.70;;;;;;5070182;28;20143;-68
2022/01/02 13:09:40;;;;;;;2.10;2.00;;;7.40;67.70;;;;;;5070449;28;20024;-70
2022/01/02 13:12:14;;;;;;;2.05;1.95;;;7.40;67.70;;;;;;5069047;28;20374;-69
2022/01/02 13:14:44;;;;;;;2.03;1.92;;;7.50;67.70;;;;;;5070371;28;20020;-69
2022/01/02 13:17:15;;;;;;;2.10;2.00;;;7.40;67.60;;;;;;5068613;28;20447;-70
2022/01/02 13:19:50;;;;;;;2.40;2.20;;;7.40;68.20;;;;;;5068580;28;20021;-69
2022/01/02 13:22:22;;;;;;;2.10;2.00;;;7.40;67.70;;;;;;5068492;28;20051;-69
2022/01/02 13:24:50;;;;;;;2.25;2.05;;;7.40;67.70;;;;;;5069923;28;20021;-70
2022/01/02 13:27:16;;;;;;;2.33;2.13;;;7.40;67.70;;;;;;5069667;28;20028;-69
2022/01/02 13:29:58;;;;;;;2.28;2.10;;;7.40;67.70;;;;;;5069343;28;20027;-70
2022/01/02 13:32:25;;;;;;;2.20;2.10;;;7.40;67.60;;;;;;5063371;28;20025;-69
2022/01/02 13:35:03;;;;;;;2.28;2.08;;;7.30;67.70;;;;;;5055045;28;20474;-70
2022/01/02 13:37:40;;;;;;;2.17;2.05;;;7.30;67.70;;;;;;5055047;28;20171;-70
2022/01/02 13:40:28;;;;;;;2.13;2.03;;;7.30;67.70;;;;;;5056394;28;20455;-70
2022/01/02 13:42:54;;;;;;;2.15;2.05;;;7.30;67.70;;;;;;5055844;28;20033;-69
2022/01/02 13:45:30;;;;;;;2.40;2.20;;;7.30;67.70;;;;;;5056209;28;20017;-70
2022/01/02 13:47:57;;;;;;;2.38;2.17;;;7.30;67.70;;;;;;5055057;28;20031;-70
2022/01/02 13:50:36;;;;;;;2.58;2.22;;;7.20;67.70;;;;;;5055987;28;20032;-69
2022/01/02 13:53:13;;;;;;;2.47;2.28;;;7.20;67.70;;;;;;5055609;28;20039;-69
2022/01/02 13:55:40;;;;;;;2.17;2.05;;;7.20;67.70;;;;;;5055174;28;20021;-70
2022/01/02 13:58:25;;;;;;;2.22;2.03;;;7.20;67.70;;;;;;5056039;28;20021;-69
2022/01/02 14:01:14;;;;;;;2.40;2.20;;;7.20;67.70;;;;;;5054572;28;20339;-69
2022/01/02 14:03:41;;;;;;;2.22;2.03;;;7.10;67.60;;;;;;5056221;28;20017;-70
2022/01/02 14:06:14;;;;;;;2.20;2.00;;;7.10;67.70;;;;;;5056073;28;20032;-69
2022/01/02 14:08:43;;;;;;;2.38;2.20;;;7.10;67.80;;;;;;5054428;28;20040;-69
2022/01/02 14:11:11;;;;;;;2.33;2.13;;;7.10;67.80;;;;;;5055688;28;20025;-69
2022/01/02 14:17:02;;;;;;;2.50;2.22;;;7.10;67.70;;;;;;5063688;28;20033;-69
2022/01/02 14:19:29;;;;;;;2.33;2.13;;;7.00;67.80;;;;;;5055346;28;20025;-68
2022/01/02 14:21:55;;;;;;;2.40;2.20;;;7.00;67.80;;;;;;5053728;28;20164;-70
2022/01/02 14:24:21;;;;;;;2.50;2.30;;;7.00;67.90;;;;;;5055632;28;20029;-69
2022/01/02 14:26:49;;;;;;;2.30;2.05;;;7.00;67.90;;;;;;5054057;28;20028;-70
2022/01/02 14:29:15;;;;;;;2.40;2.20;;;7.00;67.90;;;;;;5055176;28;20512;-68
2022/01/02 14:31:41;;;;;;;2.40;2.20;;;7.00;67.90;;;;;;5055297;28;20031;-69
2022/01/02 14:34:07;;;;;;;2.60;2.40;;;7.00;67.90;;;;;;5053937;28;20407;-71
2022/01/02 14:36:33;;;;;;;2.67;2.28;;;6.90;67.90;;;;;;5055148;28;20105;-70
2022/01/02 14:38:59;;;;;;;2.30;2.15;;;6.90;67.90;;;;;;5053951;28;20031;-69
2022/01/02 14:41:25;;;;;;;2.40;2.20;;;6.90;67.90;;;;;;5055127;28;20036;-70
2022/01/02 14:43:52;;;;;;;2.40;2.20;;;6.90;67.90;;;;;;5052890;28;20025;-68
2022/01/02 14:46:20;;;;;;;2.45;2.30;;;6.90;68.00;;;;;;5055080;28;20418;-67
2022/01/02 14:48:46;;;;;;;2.85;2.47;;;6.90;68.00;;;;;;5055134;28;20078;-68
2022/01/02 14:51:12;;;;;;;2.60;2.40;;;6.90;68.00;;;;;;5054779;28;20028;-72
2022/01/02 14:53:41;;;;;;;2.63;2.42;;;6.90;68.00;;;;;;5055207;28;20327;-70
2022/01/02 14:56:08;;;;;;;2.50;2.30;;;6.90;68.00;;;;;;5054867;28;20025;-70
2022/01/02 14:58:35;;;;;;;2.72;2.35;;;6.90;68.00;;;;;;5054858;28;20155;-69
2022/01/02 15:01:00;;;;;;;2.78;2.47;;;6.90;68.00;;;;;;5055110;28;20025;-70
2022/01/02 15:03:26;;;;;;;2.70;2.50;;;6.80;68.00;;;;;;5054910;28;20327;-69
2022/01/02 15:05:53;;;;;;;2.65;2.40;;;6.90;68.10;;;;;;5054472;28;20376;-69
2022/01/02 15:08:19;;;;;;;2.60;2.40;;;6.80;68.00;;;;;;5054646;28;20022;-70
2022/01/02 15:10:44;;;;;;;2.88;2.55;;;6.90;68.10;;;;;;5053238;28;20030;-69
2022/01/02 15:13:10;;;;;;;2.58;2.38;;;6.80;68.10;;;;;;5054648;28;20083;-72
2022/01/02 15:15:36;;;;;;;2.40;2.20;;;6.90;68.10;;;;;;5053401;28;20489;-71
2022/01/02 15:18:01;;;;;;;2.50;2.30;;;6.90;68.10;;;;;;5054569;28;20446;-70
2022/01/02 15:20:28;;;;;;;2.45;2.25;;;6.80;68.10;;;;;;5054421;28;20489;-69
2022/01/02 15:22:54;;;;;;;3.00;2.55;;;6.90;68.10;;;;;;5054463;28;20013;-71
2022/01/02 15:25:20;;;;;;;2.55;2.33;;;6.80;68.00;;;;;;5036570;28;20036;-69
2022/01/02 15:27:46;;;;;;;2.50;2.30;;;6.80;68.00;;;;;;5053133;28;20021;-71
2022/01/02 15:30:13;;;;;;;2.65;2.45;;;6.90;68.10;;;;;;5054319;28;20021;-69
2022/01/02 15:32:39;;;;;;;3.00;2.50;;;6.90;68.10;;;;;;5054293;28;20032;-71
2022/01/02 15:35:11;;;;;;;3.10;2.50;;;6.80;68.10;;;;;;5052769;28;20071;-70
2022/01/02 15:37:38;;;;;;;3.60;2.42;;;6.90;68.10;;;;;;5053464;28;20032;-69
2022/01/02 15:40:07;;;;;;;2.92;2.40;;;6.90;68.10;;;;;;5054460;28;20114;-68
2022/01/02 15:42:33;;;;;;;2.50;2.30;;;6.90;68.10;;;;;;5052700;28;20422;-70
2022/01/02 15:44:59;;;;;;;2.47;2.28;;;6.90;68.10;;;;;;5052464;28;20021;-70
2022/01/02 15:47:24;;;;;;;2.58;2.38;;;6.90;68.10;;;;;;5053695;28;20021;-69
2022/01/02 15:49:50;;;;;;;2.50;2.30;;;6.80;68.00;;;;;;5053881;28;20102;-70
2022/01/02 15:52:16;;;;;;;2.38;2.17;;;6.90;68.10;;;;;;5053801;28;20087;-68
2022/01/02 15:54:41;;;;;;;3.05;2.60;;;6.90;68.00;;;;;;5053345;28;20052;-71
2022/01/02 15:57:07;;;;;;;2.40;2.20;;;6.90;68.00;;;;;;5053917;28;20017;-70
2022/01/02 15:59:32;;;;;;;2.67;2.47;;;6.80;68.00;;;;;;5053802;28;20021;-70
2022/01/02 16:01:58;;;;;;;3.85;2.53;;;6.80;68.00;;;;;;5053387;28;20033;-69
2022/01/02 16:04:24;;;;;;;2.58;2.38;;;6.90;68.00;;;;;;5054042;28;20100;-69
2022/01/02 16:06:50;;;;;;;2.40;2.20;;;6.90;68.00;;;;;;5053783;28;20435;-68
2022/01/02 16:09:16;;;;;;;2.67;2.47;;;6.80;68.00;;;;;;5053403;28;20051;-71
2022/01/02 16:11:41;;;;;;;2.60;2.40;;;6.80;68.00;;;;;;5053807;28;20035;-69
2022/01/02 16:14:07;;;;;;;2.83;2.42;;;6.90;68.60;;;;;;5053488;28;20021;-69
2022/01/02 16:16:34;;;;;;;2.47;2.28;;;6.80;68.00;;;;;;5052370;28;20025;-69
2022/01/02 16:19:00;;;;;;;2.60;2.40;;;6.80;68.00;;;;;;5053620;28;20359;-69
2022/01/02 16:21:27;;;;;;;3.08;2.63;;;6.80;68.00;;;;;;5053592;28;20071;-70
2022/01/02 16:23:54;;;;;;;2.60;2.40;;;6.80;68.00;;;;;;5053474;28;20470;-71
2022/01/02 16:26:20;;;;;;;2.55;2.35;;;6.80;68.00;;;;;;5052555;28;20022;-70
2022/01/02 16:28:47;;;;;;;2.60;2.40;;;6.80;68.00;;;;;;5052253;28;20079;-69
2022/01/02 16:31:15;;;;;;;2.38;2.17;;;6.80;68.00;;;;;;5053305;28;20112;-70
2022/01/02 16:33:40;;;;;;;2.70;2.50;;;6.80;67.90;;;;;;5052195;28;20021;-69
2022/01/02 16:36:06;;;;;;;2.67;2.33;;;6.80;68.00;;;;;;5053308;28;20071;-70
2022/01/02 16:38:32;;;;;;;2.88;2.50;;;6.80;67.90;;;;;;5053213;28;20021;-69
2022/01/02 16:40:59;;;;;;;2.80;2.50;;;6.80;67.90;;;;;;5052086;28;20032;-68
2022/01/02 16:43:26;;;;;;;2.83;2.58;;;6.80;68.00;;;;;;5053491;28;20022;-70
2022/01/02 16:45:52;;;;;;;2.85;2.55;;;6.80;67.90;;;;;;5053350;28;20112;-69
2022/01/02 16:48:18;;;;;;;3.47;2.78;;;6.80;68.00;;;;;;5051804;28;20112;-70
2022/01/02 16:50:44;;;;;;;2.58;2.38;;;6.80;67.90;;;;;;5053384;28;20052;-70
2022/01/02 16:53:11;;;;;;;3.25;2.78;;;6.80;68.00;;;;;;5053316;28;20025;-69
2022/01/02 16:55:38;;;;;;;3.45;2.88;;;6.80;68.00;;;;;;5051843;28;20021;-68
2022/01/02 16:58:05;;;;;;;2.75;2.55;;;6.80;68.00;;;;;;5053600;28;20494;-69
2022/01/02 17:00:33;;;;;;;3.28;2.70;;;6.80;68.00;;;;;;5052997;28;20060;-71
2022/01/02 17:03:00;;;;;;;3.05;2.70;;;6.80;68.00;;;;;;5052412;28;20082;-69
2022/01/02 17:05:27;;;;;;;2.80;2.60;;;6.80;68.00;;;;;;5053091;28;20013;-70
2022/01/02 17:07:53;;;;;;;2.50;2.30;;;6.80;68.00;;;;;;5054829;28;20509;-70
2022/01/02 17:10:18;;;;;;;2.67;2.47;;;6.80;68.00;;;;;;5055725;28;20025;-70
2022/01/02 17:12:44;;;;;;;3.00;2.70;;;6.80;68.00;;;;;;5056652;28;20104;-70
2022/01/02 17:15:12;;;;;;;2.65;2.40;;;6.80;68.00;;;;;;5055539;28;20017;-69
2022/01/02 17:17:39;;;;;;;2.85;2.50;;;6.80;68.00;;;;;;5055487;28;20466;-69
2022/01/02 17:20:07;;;;;;;2.70;2.50;;;6.80;68.00;;;;;;5055403;28;20033;-69
2022/01/02 17:22:34;;;;;;;2.80;2.58;;;6.80;68.00;;;;;;5055542;28;20017;-72
2022/01/02 17:25:00;;;;;;;2.90;2.53;;;6.80;68.00;;;;;;5056767;28;20032;-69
2022/01/02 17:27:30;;;;;;;2.80;2.50;;;6.80;68.00;;;;;;5056657;28;20095;-69
2022/01/02 17:29:57;;;;;;;3.80;2.78;;;6.80;68.00;;;;;;5055944;28;20056;-70
2022/01/02 17:32:24;;;;;;;2.90;2.60;;;6.80;67.90;;;;;;5055267;28;20079;-69
2022/01/02 17:34:50;;;;;;;2.88;2.63;;;6.80;68.00;;;;;;5056434;28;20176;-68
2022/01/02 17:37:16;;;;;;;2.90;2.50;;;6.80;68.00;;;;;;5056811;28;20127;-71
2022/01/02 17:39:42;;;;;;;3.13;2.60;;;6.80;68.00;;;;;;5056348;28;20021;-69
2022/01/02 17:42:09;;;;;;;3.45;2.60;;;6.70;67.90;;;;;;5054873;28;20029;-69
2022/01/02 17:44:35;;;;;;;3.25;2.72;;;6.80;68.00;;;;;;5054988;28;20025;-70
2022/01/02 17:47:01;;;;;;;3.05;2.72;;;6.80;68.00;;;;;;5056453;28;20036;-69
2022/01/02 17:49:27;;;;;;;2.60;2.40;;;6.70;67.90;;;;;;5055989;28;20078;-68
2022/01/02 17:51:53;;;;;;;3.05;2.63;;;6.70;67.90;;;;;;5056027;28;20021;-70
2022/01/02 17:54:20;;;;;;;3.33;2.78;;;6.80;68.00;;;;;;5056050;28;20024;-68
2022/01/02 17:56:45;;;;;;;3.85;2.80;;;6.80;68.10;;;;;;5052084;28;20029;-71
2022/01/02 17:59:12;;;;;;;3.00;2.70;;;6.70;67.90;;;;;;5047767;28;20030;-68
2022/01/02 18:01:37;;;;;;;3.00;2.67;;;6.80;68.00;;;;;;5036076;28;20123;-68
2022/01/02 18:04:05;;;;;;;3.05;2.75;;;6.80;67.90;;;;;;5036239;28;20049;-68
2022/01/02 18:06:31;;;;;;;3.17;2.60;;;6.70;67.90;;;;;;5036724;28;20022;-68
2022/01/02 18:09:04;;;;;;;3.53;2.83;;;6.80;68.00;;;;;;5039657;28;20055;-69
2022/01/02 18:11:31;;;;;;;3.30;2.90;;;6.70;67.90;;;;;;5054639;28;20348;-68
2022/01/02 18:13:57;;;;;;;3.55;2.80;;;6.70;67.90;;;;;;5055591;28;20017;-72
2022/01/02 18:16:22;;;;;;;3.72;3.03;;;6.70;67.90;;;;;;5037638;28;20107;-70
2022/01/02 18:18:48;;;;;;;3.42;2.80;;;6.70;67.90;;;;;;5034116;28;20451;-72
2022/01/02 18:21:14;;;;;;;3.72;3.03;;;6.70;67.90;;;;;;5035847;28;20486;-71
2022/01/02 18:23:43;;;;;;;3.90;2.90;;;6.70;67.90;;;;;;5042333;28;20462;-70
2022/01/02 18:26:12;;;;;;;3.63;2.90;;;6.70;67.90;;;;;;5055258;28;20446;-71
2022/01/02 18:28:39;;;;;;;3.53;3.10;;;6.70;67.90;;;;;;5054090;28;20446;-70
2022/01/02 18:31:04;;;;;;;3.45;3.10;;;6.70;67.90;;;;;;5052204;28;20160;-69
2022/01/02 18:33:30;;;;;;;3.58;3.00;;;6.70;67.90;;;;;;5039679;28;20057;-71
2022/01/02 18:35:56;;;;;;;3.97;3.00;;;6.70;67.90;;;;;;5037009;28;20024;-71
2022/01/02 18:38:22;;;;;;;4.03;2.90;;;6.70;67.90;;;;;;5035126;28;20104;-71
2022/01/02 18:40:49;;;;;;;3.55;2.90;;;6.70;67.90;;;;;;5040986;28;20033;-71
2022/01/02 18:43:16;;;;;;;3.50;3.08;;;6.70;67.90;;;;;;5050758;28;20025;-73
2022/01/02 18:45:43;;;;;;;4.03;3.05;;;6.70;67.90;;;;;;5036260;28;20055;-70
2022/01/02 18:48:08;;;;;;;3.72;3.13;;;6.70;67.90;;;;;;5041157;28;20072;-68
2022/01/02 18:50:35;;;;;;;3.95;3.30;;;6.70;67.90;;;;;;5040405;28;20403;-70
2022/01/02 18:53:00;;;;;;;4.43;3.08;;;6.70;67.90;;;;;;5033705;28;20021;-70
2022/01/02 18:55:26;;;;;;;3.75;3.13;;;6.70;67.90;;;;;;5046625;28;20352;-69
2022/01/02 18:57:52;;;;;;;5.00;3.30;;;6.70;67.90;;;;;;5053106;28;20447;-70
2022/01/02 19:00:17;;;;;;;4.38;3.20;;;6.70;67.90;;;;;;5043768;28;20021;-71
2022/01/02 19:02:43;;;;;;;4.70;3.70;;;6.70;67.90;;;;;;5041049;28;20017;-71
2022/01/02 19:05:09;;;;;;;3.85;3.20;;;6.70;67.90;;;;;;5042208;28;20028;-73
2022/01/02 19:07:35;;;;;;;3.58;3.10;;;6.70;67.90;;;;;;5034656;28;20032;-74
2022/01/02 19:10:00;;;;;;;3.97;3.30;;;6.70;67.90;;;;;;5050637;28;20371;-73
2022/01/02 19:12:26;;;;;;;4.35;3.40;;;6.70;67.90;;;;;;5039950;28;20108;-73
2022/01/02 19:14:52;;;;;;;4.25;3.20;;;6.70;67.90;;;;;;5054714;28;20024;-73
2022/01/02 19:17:17;;;;;;;4.10;3.20;;;6.70;67.90;;;;;;5041313;28;20116;-74
2022/01/02 19:19:43;;;;;;;4.72;3.33;;;6.70;67.90;;;;;;5034278;28;20068;-75
2022/01/02 19:22:09;;;;;;;4.65;3.15;;;6.70;67.90;;;;;;5034304;28;20088;-71
2022/01/02 19:24:35;;;;;;;5.05;3.60;;;6.70;67.90;;;;;;5034474;28;20060;-72
2022/01/02 19:27:00;;;;;;;4.97;3.40;;;6.70;67.90;;;;;;5034473;28;20028;-72
2022/01/02 19:29:26;;;;;;;3.70;3.10;;;6.70;67.90;;;;;;5048292;28;20028;-70
2022/01/02 19:31:56;;;;;;;3.97;3.28;;;6.70;67.90;;;;;;5042005;28;20371;-71
2022/01/02 19:34:22;;;;;;;4.72;3.53;;;6.70;67.90;;;;;;5033196;28;20078;-71
2022/01/02 19:36:48;;;;;;;4.35;3.35;;;6.70;67.80;;;;;;5033811;28;20137;-72
2022/01/02 19:39:13;;;;;;;4.40;3.38;;;6.70;67.90;;;;;;5036176;28;20048;-70
2022/01/02 19:41:39;;;;;;;5.32;3.80;;;6.70;67.90;;;;;;5052224;28;20060;-73
2022/01/02 19:44:06;;;;;;;6.47;3.75;;;6.70;67.90;;;;;;5041755;28;20047;-72
2022/01/02 19:46:33;;;;;;;4.82;3.60;;;6.70;67.90;;;;;;5034591;28;20037;-73
2022/01/02 19:49:00;;;;;;;4.63;3.70;;;6.70;67.80;;;;;;5048672;28;20100;-73
2022/01/02 19:51:27;;;;;;;5.13;3.72;;;6.70;67.90;;;;;;5052749;28;20367;-74
2022/01/02 19:53:52;;;;;;;4.78;3.45;;;6.70;67.80;;;;;;5034930;28;20037;-71
2022/01/02 19:56:18;;;;;;;4.97;3.85;;;6.70;67.80;;;;;;5049351;28;20100;-71
2022/01/02 19:58:44;;;;;;;5.30;3.67;;;6.70;67.80;;;;;;5048840;28;20424;-72
2022/01/02 20:01:11;;;;;;;5.00;3.90;;;6.70;67.90;;;;;;5052195;28;20068;-72
2022/01/02 20:03:36;;;;;;;5.25;3.90;;;6.70;67.90;;;;;;5052365;28;20032;-71
2022/01/02 20:06:02;;;;;;;6.28;3.70;;;6.70;67.80;;;;;;5037530;28;20100;-71
2022/01/02 20:08:28;;;;;;;5.50;3.63;;;6.70;67.80;;;;;;5033954;28;20025;-70
2022/01/02 20:10:54;;;;;;;4.65;3.70;;;6.70;67.80;;;;;;5047524;28;20051;-70
